sensor_id;sensor_type;location;lat;lon;timestamp;pressure;altitude;pressure_sealevel;temperature;humidity
31239;BME280;17871;31.584;74.450;2023-03-21T00:00:40;98228.47;;;19.06;90.24
31239;BME280;17871;31.584;74.450;2023-03-21T00:03:09;98227.38;;;19.13;90.02
31239;BME280;17871;31.584;74.450;2023-03-21T00:05:40;98229.66;;;18.94;90.45
31239;BME280;17871;31.584;74.450;2023-03-21T00:08:09;98234.72;;;18.97;90.46
31239;BME280;17871;31.584;74.450;2023-03-21T00:10:38;98229.38;;;19.03;89.82
31239;BME280;17871;31.584;74.450;2023-03-21T00:13:14;98227.72;;;19.01;90.14
31239;BME280;17871;31.584;74.450;2023-03-21T00:15:43;98228.97;;;18.88;90.38
31239;BME280;17871;31.584;74.450;2023-03-21T00:18:38;98228.59;;;19.01;89.91
31239;BME280;17871;31.584;74.450;2023-03-21T00:21:16;98223.88;;;18.85;90.67
31239;BME280;17871;31.584;74.450;2023-03-21T00:24:06;98228.00;;;18.92;90.26
31239;BME280;17871;31.584;74.450;2023-03-21T00:26:35;98226.53;;;18.83;90.53
31239;BME280;17871;31.584;74.450;2023-03-21T00:29:05;98223.41;;;18.72;90.85
31239;BME280;17871;31.584;74.450;2023-03-21T00:31:34;98232.19;;;18.67;90.98
31239;BME280;17871;31.584;74.450;2023-03-21T00:34:03;98234.78;;;18.67;90.76
31239;BME280;17871;31.584;74.450;2023-03-21T00:36:32;98239.28;;;18.60;90.89
31239;BME280;17871;31.584;74.450;2023-03-21T00:39:01;98246.19;;;18.59;90.82
31239;BME280;17871;31.584;74.450;2023-03-21T00:41:32;98252.56;;;18.46;91.40
31239;BME280;17871;31.584;74.450;2023-03-21T00:44:10;98262.69;;;18.55;91.07
31239;BME280;17871;31.584;74.450;2023-03-21T00:46:43;98270.00;;;18.38;91.86
31239;BME280;17871;31.584;74.450;2023-03-21T00:49:33;98268.88;;;18.48;91.37
31239;BME280;17871;31.584;74.450;2023-03-21T00:52:04;98264.63;;;18.46;91.58
31239;BME280;17871;31.584;74.450;2023-03-21T00:54:50;98274.13;;;18.45;91.34
31239;BME280;17871;31.584;74.450;2023-03-21T00:57:20;98278.44;;;18.46;91.25
31239;BME280;17871;31.584;74.450;2023-03-21T01:00:06;98281.19;;;18.39;91.11
31239;BME280;17871;31.584;74.450;2023-03-21T01:02:41;98280.50;;;18.32;91.75
31239;BME280;17871;31.584;74.450;2023-03-21T01:05:38;98284.72;;;18.36;92.19
31239;BME280;17871;31.584;74.450;2023-03-21T01:08:27;98286.94;;;18.51;91.32
31239;BME280;17871;31.584;74.450;2023-03-21T01:11:16;98287.16;;;18.42;90.84
31239;BME280;17871;31.584;74.450;2023-03-21T01:13:51;98282.91;;;18.40;91.05
31239;BME280;17871;31.584;74.450;2023-03-21T01:16:31;98285.78;;;18.28;90.76
31239;BME280;17871;31.584;74.450;2023-03-21T01:19:03;98286.81;;;18.22;91.31
31239;BME280;17871;31.584;74.450;2023-03-21T01:21:42;98285.09;;;18.21;91.25
31239;BME280;17871;31.584;74.450;2023-03-21T01:24:13;98290.06;;;18.30;90.66
31239;BME280;17871;31.584;74.450;2023-03-21T01:26:43;98288.53;;;18.22;90.96
31239;BME280;17871;31.584;74.450;2023-03-21T01:29:13;98290.00;;;18.32;90.59
31239;BME280;17871;31.584;74.450;2023-03-21T01:31:43;98290.84;;;18.32;90.33
31239;BME280;17871;31.584;74.450;2023-03-21T01:34:14;98303.47;;;18.44;89.86
31239;BME280;17871;31.584;74.450;2023-03-21T01:36:44;98302.59;;;18.45;89.56
31239;BME280;17871;31.584;74.450;2023-03-21T01:39:18;98304.31;;;18.46;89.32
31239;BME280;17871;31.584;74.450;2023-03-21T01:41:49;98305.22;;;18.44;89.28
31239;BME280;17871;31.584;74.450;2023-03-21T01:44:22;98305.16;;;18.47;89.31
31239;BME280;17871;31.584;74.450;2023-03-21T01:46:52;98307.75;;;18.45;89.55
31239;BME280;17871;31.584;74.450;2023-03-21T01:49:50;98310.75;;;18.64;88.93
31239;BME280;17871;31.584;74.450;2023-03-21T01:52:30;98309.84;;;18.67;88.92
31239;BME280;17871;31.584;74.450;2023-03-21T01:55:11;98314.69;;;18.79;88.10
31239;BME280;17871;31.584;74.450;2023-03-21T01:57:56;98312.34;;;18.70;88.26
31239;BME280;17871;31.584;74.450;2023-03-21T02:00:48;98315.38;;;18.84;87.84
31239;BME280;17871;31.584;74.450;2023-03-21T02:03:28;98317.09;;;18.85;87.32
31239;BME280;17871;31.584;74.450;2023-03-21T02:06:37;98318.53;;;18.95;87.24
31239;BME280;17871;31.584;74.450;2023-03-21T02:09:36;98321.94;;;18.97;86.64
31239;BME280;17871;31.584;74.450;2023-03-21T02:12:14;98334.75;;;19.03;86.09
31239;BME280;17871;31.584;74.450;2023-03-21T02:14:48;98337.00;;;19.13;85.84
31239;BME280;17871;31.584;74.450;2023-03-21T02:20:53;98356.28;;;19.34;84.92
31239;BME280;17871;31.584;74.450;2023-03-21T02:27:05;98357.63;;;19.49;84.16
31239;BME280;17871;31.584;74.450;2023-03-21T02:38:31;98353.31;;;19.77;83.24
31239;BME280;17871;31.584;74.450;2023-03-21T02:41:17;98353.09;;;19.85;82.91
31239;BME280;17871;31.584;74.450;2023-03-21T02:49:21;98369.94;;;20.27;81.88
31239;BME280;17871;31.584;74.450;2023-03-21T02:51:56;98364.75;;;20.27;81.72
31239;BME280;17871;31.584;74.450;2023-03-21T02:54:42;98378.28;;;20.37;81.49
31239;BME280;17871;31.584;74.450;2023-03-21T02:57:20;98377.09;;;20.45;81.36
31239;BME280;17871;31.584;74.450;2023-03-21T03:00:01;98382.69;;;20.59;81.27
31239;BME280;17871;31.584;74.450;2023-03-21T03:02:46;98374.78;;;20.64;81.40
31239;BME280;17871;31.584;74.450;2023-03-21T03:05:36;98366.41;;;20.81;80.86
31239;BME280;17871;31.584;74.450;2023-03-21T03:08:32;98375.00;;;20.83;80.66
31239;BME280;17871;31.584;74.450;2023-03-21T03:11:33;98376.47;;;20.90;80.72
31239;BME280;17871;31.584;74.450;2023-03-21T03:14:32;98369.34;;;20.95;80.35
31239;BME280;17871;31.584;74.450;2023-03-21T03:25:27;98345.28;;;21.39;80.20
31239;BME280;17871;31.584;74.450;2023-03-21T03:28:16;98351.22;;;21.43;80.30
31239;BME280;17871;31.584;74.450;2023-03-21T03:30:47;98342.41;;;21.68;78.84
31239;BME280;17871;31.584;74.450;2023-03-21T03:33:44;98343.16;;;21.72;78.69
31239;BME280;17871;31.584;74.450;2023-03-21T03:36:16;98340.25;;;21.80;77.99
31239;BME280;17871;31.584;74.450;2023-03-21T03:39:12;98348.16;;;22.00;77.85
31239;BME280;17871;31.584;74.450;2023-03-21T03:41:55;98356.59;;;21.83;79.20
31239;BME280;17871;31.584;74.450;2023-03-21T03:44:51;98365.34;;;21.81;78.74
31239;BME280;17871;31.584;74.450;2023-03-21T03:53:29;98393.97;;;22.47;77.24
31239;BME280;17871;31.584;74.450;2023-03-21T03:56:03;98402.06;;;22.61;77.01
31239;BME280;17871;31.584;74.450;2023-03-21T03:58:37;98386.78;;;22.32;77.13
31239;BME280;17871;31.584;74.450;2023-03-21T04:01:16;98384.56;;;22.43;77.14
31239;BME280;17871;31.584;74.450;2023-03-21T04:03:47;98382.00;;;22.85;76.37
31239;BME280;17871;31.584;74.450;2023-03-21T04:06:27;98388.28;;;22.80;76.43
31239;BME280;17871;31.584;74.450;2023-03-21T04:08:57;98388.31;;;23.00;75.75
31239;BME280;17871;31.584;74.450;2023-03-21T04:11:32;98395.59;;;22.71;75.99
31239;BME280;17871;31.584;74.450;2023-03-21T04:14:02;98397.09;;;22.97;75.53
31239;BME280;17871;31.584;74.450;2023-03-21T04:16:33;98391.50;;;23.06;75.41
31239;BME280;17871;31.584;74.450;2023-03-21T04:19:03;98378.75;;;23.19;74.90
31239;BME280;17871;31.584;74.450;2023-03-21T04:21:34;98372.91;;;23.14;75.38
31239;BME280;17871;31.584;74.450;2023-03-21T04:24:04;98380.75;;;23.14;75.92
31239;BME280;17871;31.584;74.450;2023-03-21T04:26:35;98369.44;;;23.34;74.75
31239;BME280;17871;31.584;74.450;2023-03-21T04:29:25;98376.44;;;23.52;73.75
31239;BME280;17871;31.584;74.450;2023-03-21T04:32:15;98381.47;;;23.56;73.53
31239;BME280;17871;31.584;74.450;2023-03-21T04:34:53;98389.28;;;23.75;73.16
31239;BME280;17871;31.584;74.450;2023-03-21T04:37:23;98399.38;;;24.01;72.97
31239;BME280;17871;31.584;74.450;2023-03-21T04:39:52;98409.47;;;24.09;72.69
31239;BME280;17871;31.584;74.450;2023-03-21T04:42:22;98420.97;;;23.86;71.68
31239;BME280;17871;31.584;74.450;2023-03-21T04:44:50;98433.56;;;24.15;71.48
31239;BME280;17871;31.584;74.450;2023-03-21T04:47:19;98422.34;;;24.13;70.93
31239;BME280;17871;31.584;74.450;2023-03-21T04:49:49;98426.78;;;24.30;70.41
31239;BME280;17871;31.584;74.450;2023-03-21T04:52:19;98430.34;;;24.27;70.36
31239;BME280;17871;31.584;74.450;2023-03-21T04:54:51;98437.19;;;24.11;70.41
31239;BME280;17871;31.584;74.450;2023-03-21T04:57:20;98434.56;;;24.13;69.99
31239;BME280;17871;31.584;74.450;2023-03-21T04:59:49;98434.88;;;24.43;69.64
31239;BME280;17871;31.584;74.450;2023-03-21T05:02:18;98437.63;;;24.21;69.36
31239;BME280;17871;31.584;74.450;2023-03-21T05:04:47;98442.28;;;23.96;69.58
31239;BME280;17871;31.584;74.450;2023-03-21T05:07:16;98444.28;;;23.91;69.90
31239;BME280;17871;31.584;74.450;2023-03-21T05:09:45;98448.97;;;24.01;69.82
31239;BME280;17871;31.584;74.450;2023-03-21T05:12:16;98452.16;;;24.45;69.23
31239;BME280;17871;31.584;74.450;2023-03-21T05:14:47;98456.28;;;24.32;69.56
31239;BME280;17871;31.584;74.450;2023-03-21T05:17:15;98460.50;;;24.53;68.11
31239;BME280;17871;31.584;74.450;2023-03-21T05:19:51;98470.44;;;24.45;68.24
31239;BME280;17871;31.584;74.450;2023-03-21T05:22:20;98469.13;;;24.18;69.55
31239;BME280;17871;31.584;74.450;2023-03-21T05:24:52;98465.41;;;24.59;68.35
31239;BME280;17871;31.584;74.450;2023-03-21T05:27:46;98452.72;;;24.88;67.31
31239;BME280;17871;31.584;74.450;2023-03-21T05:30:26;98457.19;;;24.31;69.18
31239;BME280;17871;31.584;74.450;2023-03-21T05:32:58;98457.28;;;24.65;68.37
31239;BME280;17871;31.584;74.450;2023-03-21T05:35:33;98469.38;;;24.49;68.10
31239;BME280;17871;31.584;74.450;2023-03-21T05:38:08;98462.56;;;24.28;68.97
31239;BME280;17871;31.584;74.450;2023-03-21T05:40:49;98461.25;;;24.55;68.87
31239;BME280;17871;31.584;74.450;2023-03-21T05:43:18;98463.16;;;24.52;69.52
31239;BME280;17871;31.584;74.450;2023-03-21T05:45:47;98474.63;;;24.49;68.87
31239;BME280;17871;31.584;74.450;2023-03-21T05:48:18;98464.06;;;24.69;68.12
31239;BME280;17871;31.584;74.450;2023-03-21T05:51:06;98459.78;;;25.03;67.09
31239;BME280;17871;31.584;74.450;2023-03-21T05:53:35;98466.19;;;24.61;67.80
31239;BME280;17871;31.584;74.450;2023-03-21T05:56:05;98470.41;;;25.34;66.29
31239;BME280;17871;31.584;74.450;2023-03-21T05:59:00;98465.16;;;25.00;66.17
31239;BME280;17871;31.584;74.450;2023-03-21T06:01:32;98468.03;;;25.79;65.33
31239;BME280;17871;31.584;74.450;2023-03-21T06:04:12;98463.25;;;25.88;65.16
31239;BME280;17871;31.584;74.450;2023-03-21T06:06:42;98469.63;;;25.82;65.23
31239;BME280;17871;31.584;74.450;2023-03-21T06:09:11;98469.97;;;25.76;64.99
31239;BME280;17871;31.584;74.450;2023-03-21T06:11:48;98469.38;;;25.71;65.65
31239;BME280;17871;31.584;74.450;2023-03-21T06:14:25;98459.78;;;25.03;67.18
31239;BME280;17871;31.584;74.450;2023-03-21T06:17:17;98471.34;;;24.80;68.28
31239;BME280;17871;31.584;74.450;2023-03-21T06:20:07;98459.56;;;25.24;67.18
31239;BME280;17871;31.584;74.450;2023-03-21T06:22:44;98469.66;;;25.15;67.06
31239;BME280;17871;31.584;74.450;2023-03-21T06:25:14;98469.94;;;25.26;64.61
31239;BME280;17871;31.584;74.450;2023-03-21T06:27:43;98468.19;;;24.92;66.04
31239;BME280;17871;31.584;74.450;2023-03-21T06:30:13;98471.16;;;25.53;65.54
31239;BME280;17871;31.584;74.450;2023-03-21T06:33:05;98475.34;;;25.06;66.07
31239;BME280;17871;31.584;74.450;2023-03-21T06:35:36;98462.22;;;25.40;65.55
31239;BME280;17871;31.584;74.450;2023-03-21T06:41:37;98468.69;;;25.33;66.60
31239;BME280;17871;31.584;74.450;2023-03-21T06:44:06;98465.78;;;25.56;65.73
31239;BME280;17871;31.584;74.450;2023-03-21T06:46:44;98478.28;;;25.51;65.18
31239;BME280;17871;31.584;74.450;2023-03-21T06:49:17;98468.88;;;25.80;64.75
31239;BME280;17871;31.584;74.450;2023-03-21T06:51:47;98460.47;;;25.41;64.83
31239;BME280;17871;31.584;74.450;2023-03-21T06:54:19;98454.41;;;25.73;64.28
31239;BME280;17871;31.584;74.450;2023-03-21T06:56:56;98458.25;;;25.99;64.07
31239;BME280;17871;31.584;74.450;2023-03-21T06:59:29;98450.66;;;25.94;63.46
31239;BME280;17871;31.584;74.450;2023-03-21T07:02:18;98453.22;;;25.46;65.21
31239;BME280;17871;31.584;74.450;2023-03-21T07:05:02;98447.69;;;24.66;67.24
31239;BME280;17871;31.584;74.450;2023-03-21T07:07:31;98443.13;;;25.05;66.88
31239;BME280;17871;31.584;74.450;2023-03-21T07:10:01;98450.28;;;24.66;67.26
31239;BME280;17871;31.584;74.450;2023-03-21T07:12:35;98446.34;;;24.57;67.98
31239;BME280;17871;31.584;74.450;2023-03-21T07:15:30;98440.72;;;25.01;66.81
31239;BME280;17871;31.584;74.450;2023-03-21T07:18:00;98444.78;;;25.58;65.78
31239;BME280;17871;31.584;74.450;2023-03-21T07:20:31;98438.28;;;25.65;65.85
31239;BME280;17871;31.584;74.450;2023-03-21T07:23:00;98440.72;;;26.01;64.82
31239;BME280;17871;31.584;74.450;2023-03-21T07:25:30;98443.16;;;25.55;64.27
31239;BME280;17871;31.584;74.450;2023-03-21T07:28:00;98426.84;;;26.14;63.80
31239;BME280;17871;31.584;74.450;2023-03-21T07:30:28;98422.22;;;26.19;63.10
31239;BME280;17871;31.584;74.450;2023-03-21T07:33:01;98422.09;;;26.52;61.68
31239;BME280;17871;31.584;74.450;2023-03-21T07:35:31;98428.34;;;26.65;61.11
31239;BME280;17871;31.584;74.450;2023-03-21T07:38:00;98429.72;;;26.10;62.52
31239;BME280;17871;31.584;74.450;2023-03-21T07:40:30;98425.69;;;26.20;62.41
31239;BME280;17871;31.584;74.450;2023-03-21T07:42:59;98429.56;;;26.44;61.54
31239;BME280;17871;31.584;74.450;2023-03-21T07:45:33;98422.84;;;26.24;61.12
31239;BME280;17871;31.584;74.450;2023-03-21T07:48:07;98418.56;;;26.06;61.68
31239;BME280;17871;31.584;74.450;2023-03-21T07:50:36;98408.75;;;26.57;60.94
31239;BME280;17871;31.584;74.450;2023-03-21T07:53:06;98420.91;;;26.58;60.50
31239;BME280;17871;31.584;74.450;2023-03-21T07:55:35;98401.88;;;26.24;61.95
31239;BME280;17871;31.584;74.450;2023-03-21T07:58:05;98399.63;;;26.48;61.39
31239;BME280;17871;31.584;74.450;2023-03-21T08:00:34;98409.63;;;26.71;61.35
31239;BME280;17871;31.584;74.450;2023-03-21T08:03:03;98405.63;;;26.50;61.63
31239;BME280;17871;31.584;74.450;2023-03-21T08:05:35;98404.97;;;26.47;61.02
31239;BME280;17871;31.584;74.450;2023-03-21T08:08:05;98404.81;;;26.79;59.97
31239;BME280;17871;31.584;74.450;2023-03-21T08:10:35;98402.06;;;27.11;59.71
31239;BME280;17871;31.584;74.450;2023-03-21T08:13:04;98405.25;;;27.02;59.50
31239;BME280;17871;31.584;74.450;2023-03-21T08:15:33;98396.59;;;27.29;59.21
31239;BME280;17871;31.584;74.450;2023-03-21T08:18:02;98403.41;;;27.18;58.93
31239;BME280;17871;31.584;74.450;2023-03-21T08:20:31;98393.44;;;26.95;57.99
31239;BME280;17871;31.584;74.450;2023-03-21T08:23:00;98393.34;;;27.10;58.13
31239;BME280;17871;31.584;74.450;2023-03-21T08:25:29;98390.75;;;27.24;56.37
31239;BME280;17871;31.584;74.450;2023-03-21T08:27:58;98390.88;;;27.23;55.67
31239;BME280;17871;31.584;74.450;2023-03-21T08:30:28;98397.59;;;27.13;55.24
31239;BME280;17871;31.584;74.450;2023-03-21T08:32:58;98393.84;;;27.03;56.17
31239;BME280;17871;31.584;74.450;2023-03-21T08:35:29;98387.03;;;26.85;57.06
31239;BME280;17871;31.584;74.450;2023-03-21T08:38:01;98395.19;;;26.64;58.35
31239;BME280;17871;31.584;74.450;2023-03-21T08:40:31;98384.91;;;26.91;57.22
31239;BME280;17871;31.584;74.450;2023-03-21T08:43:00;98378.44;;;26.83;57.53
31239;BME280;17871;31.584;74.450;2023-03-21T08:45:29;98376.63;;;27.13;57.41
31239;BME280;17871;31.584;74.450;2023-03-21T08:47:58;98367.75;;;26.86;56.04
31239;BME280;17871;31.584;74.450;2023-03-21T08:50:28;98362.91;;;27.08;54.73
31239;BME280;17871;31.584;74.450;2023-03-21T08:52:59;98371.63;;;26.49;55.90
31239;BME280;17871;31.584;74.450;2023-03-21T08:55:28;98360.28;;;26.94;55.32
31239;BME280;17871;31.584;74.450;2023-03-21T08:58:00;98365.75;;;27.19;55.43
31239;BME280;17871;31.584;74.450;2023-03-21T09:00:29;98355.63;;;27.41;53.89
31239;BME280;17871;31.584;74.450;2023-03-21T09:02:58;98344.03;;;27.59;52.90
31239;BME280;17871;31.584;74.450;2023-03-21T09:05:27;98347.53;;;27.30;53.96
31239;BME280;17871;31.584;74.450;2023-03-21T09:07:56;98335.47;;;27.27;53.71
31239;BME280;17871;31.584;74.450;2023-03-21T09:10:26;98326.19;;;27.64;53.63
31239;BME280;17871;31.584;74.450;2023-03-21T09:12:56;98310.44;;;27.64;53.60
31239;BME280;17871;31.584;74.450;2023-03-21T09:15:26;98314.31;;;27.45;53.48
31239;BME280;17871;31.584;74.450;2023-03-21T09:17:58;98304.25;;;27.51;53.27
31239;BME280;17871;31.584;74.450;2023-03-21T09:20:42;98302.56;;;27.64;51.59
31239;BME280;17871;31.584;74.450;2023-03-21T09:23:13;98302.34;;;27.67;51.54
31239;BME280;17871;31.584;74.450;2023-03-21T09:25:44;98298.22;;;27.63;50.42
31239;BME280;17871;31.584;74.450;2023-03-21T09:28:13;98288.16;;;27.29;50.90
31239;BME280;17871;31.584;74.450;2023-03-21T09:30:44;98293.75;;;27.65;48.82
31239;BME280;17871;31.584;74.450;2023-03-21T09:33:16;98287.69;;;27.22;48.73
31239;BME280;17871;31.584;74.450;2023-03-21T09:35:53;98284.00;;;27.11;48.27
31239;BME280;17871;31.584;74.450;2023-03-21T09:38:22;98280.28;;;26.87;48.32
31239;BME280;17871;31.584;74.450;2023-03-21T09:43:50;98261.72;;;27.18;48.86
31239;BME280;17871;31.584;74.450;2023-03-21T09:49:34;98232.63;;;27.35;48.25
31239;BME280;17871;31.584;74.450;2023-03-21T09:52:19;98219.41;;;27.51;48.48
31239;BME280;17871;31.584;74.450;2023-03-21T09:54:51;98203.47;;;27.54;48.12
31239;BME280;17871;31.584;74.450;2023-03-21T09:57:39;98205.63;;;27.74;48.22
31239;BME280;17871;31.584;74.450;2023-03-21T10:00:25;98199.28;;;27.64;48.38
31239;BME280;17871;31.584;74.450;2023-03-21T10:03:00;98190.44;;;27.52;48.48
31239;BME280;17871;31.584;74.450;2023-03-21T10:05:39;98182.59;;;27.65;47.85
31239;BME280;17871;31.584;74.450;2023-03-21T10:08:23;98173.25;;;27.61;47.19
31239;BME280;17871;31.584;74.450;2023-03-21T10:10:59;98174.03;;;27.75;46.74
31239;BME280;17871;31.584;74.450;2023-03-21T10:13:40;98164.06;;;27.80;46.35
31239;BME280;17871;31.584;74.450;2023-03-21T10:16:14;98155.25;;;27.81;45.86
31239;BME280;17871;31.584;74.450;2023-03-21T10:18:44;98146.44;;;27.82;45.44
31239;BME280;17871;31.584;74.450;2023-03-21T10:21:32;98140.53;;;27.79;46.40
31239;BME280;17871;31.584;74.450;2023-03-21T10:24:25;98136.00;;;27.68;45.41
31239;BME280;17871;31.584;74.450;2023-03-21T10:26:55;98122.03;;;27.80;46.63
31239;BME280;17871;31.584;74.450;2023-03-21T10:29:27;98115.22;;;27.91;46.34
31239;BME280;17871;31.584;74.450;2023-03-21T10:31:58;98108.59;;;27.98;46.67
31239;BME280;17871;31.584;74.450;2023-03-21T10:34:38;98096.19;;;28.00;47.12
31239;BME280;17871;31.584;74.450;2023-03-21T10:37:10;98094.00;;;27.94;47.28
31239;BME280;17871;31.584;74.450;2023-03-21T10:39:42;98083.91;;;27.88;47.19
31239;BME280;17871;31.584;74.450;2023-03-21T10:42:33;98077.59;;;27.90;47.03
31239;BME280;17871;31.584;74.450;2023-03-21T10:45:14;98074.34;;;27.87;47.35
31239;BME280;17871;31.584;74.450;2023-03-21T10:47:47;98072.88;;;27.82;47.20
31239;BME280;17871;31.584;74.450;2023-03-21T10:50:18;98068.56;;;27.81;47.51
31239;BME280;17871;31.584;74.450;2023-03-21T10:52:55;98076.09;;;27.73;48.96
31239;BME280;17871;31.584;74.450;2023-03-21T10:55:34;98076.66;;;27.66;49.08
31239;BME280;17871;31.584;74.450;2023-03-21T10:58:13;98077.47;;;27.66;48.68
31239;BME280;17871;31.584;74.450;2023-03-21T11:00:46;98065.81;;;27.58;48.73
31239;BME280;17871;31.584;74.450;2023-03-21T11:03:34;98060.97;;;27.64;48.61
31239;BME280;17871;31.584;74.450;2023-03-21T11:09:00;98051.81;;;27.45;50.70
31239;BME280;17871;31.584;74.450;2023-03-21T11:11:42;98039.31;;;27.48;50.41
31239;BME280;17871;31.584;74.450;2023-03-21T11:14:44;98029.13;;;27.44;50.54
31239;BME280;17871;31.584;74.450;2023-03-21T11:22:28;98018.63;;;27.17;50.84
31239;BME280;17871;31.584;74.450;2023-03-21T11:25:02;98022.75;;;27.21;50.98
31239;BME280;17871;31.584;74.450;2023-03-21T11:27:34;98025.69;;;27.16;52.21
31239;BME280;17871;31.584;74.450;2023-03-21T11:30:03;98022.94;;;27.18;52.71
31239;BME280;17871;31.584;74.450;2023-03-21T11:32:37;98023.09;;;27.29;53.08
31239;BME280;17871;31.584;74.450;2023-03-21T11:35:19;98033.66;;;27.15;53.17
31239;BME280;17871;31.584;74.450;2023-03-21T11:37:53;98029.53;;;27.11;53.41
31239;BME280;17871;31.584;74.450;2023-03-21T11:40:28;98042.66;;;27.11;53.82
31239;BME280;17871;31.584;74.450;2023-03-21T11:43:00;98053.91;;;27.13;53.62
31239;BME280;17871;31.584;74.450;2023-03-21T11:45:33;98056.72;;;27.10;53.41
31239;BME280;17871;31.584;74.450;2023-03-21T11:48:13;98060.09;;;27.12;51.52
31239;BME280;17871;31.584;74.450;2023-03-21T11:50:49;98059.94;;;27.01;51.58
31239;BME280;17871;31.584;74.450;2023-03-21T11:56:49;98071.72;;;27.08;51.16
31239;BME280;17871;31.584;74.450;2023-03-21T11:59:22;98076.63;;;27.00;51.92
31239;BME280;17871;31.584;74.450;2023-03-21T12:05:17;98099.88;;;26.92;52.50
31239;BME280;17871;31.584;74.450;2023-03-21T12:10:39;98101.56;;;26.64;53.32
31239;BME280;17871;31.584;74.450;2023-03-21T12:18:53;98110.00;;;26.41;53.85
31239;BME280;17871;31.584;74.450;2023-03-21T12:24:30;98111.59;;;26.29;54.73
31239;BME280;17871;31.584;74.450;2023-03-21T12:27:18;98114.69;;;26.22;55.12
31239;BME280;17871;31.584;74.450;2023-03-21T12:30:12;98118.09;;;26.08;55.85
31239;BME280;17871;31.584;74.450;2023-03-21T12:36:06;98122.50;;;26.08;56.76
31239;BME280;17871;31.584;74.450;2023-03-21T12:38:39;98117.03;;;25.83;57.89
31239;BME280;17871;31.584;74.450;2023-03-21T12:41:21;98118.72;;;25.84;57.93
31239;BME280;17871;31.584;74.450;2023-03-21T12:46:33;98137.03;;;25.84;58.58
31239;BME280;17871;31.584;74.450;2023-03-21T12:49:38;98147.88;;;25.77;58.98
31239;BME280;17871;31.584;74.450;2023-03-21T12:52:24;98156.09;;;25.71;59.38
31239;BME280;17871;31.584;74.450;2023-03-21T12:55:04;98150.84;;;25.71;59.70
31239;BME280;17871;31.584;74.450;2023-03-21T12:57:45;98149.53;;;25.64;60.05
31239;BME280;17871;31.584;74.450;2023-03-21T13:03:36;98168.44;;;25.54;60.58
31239;BME280;17871;31.584;74.450;2023-03-21T13:06:14;98172.56;;;25.42;60.93
31239;BME280;17871;31.584;74.450;2023-03-21T13:09:35;98170.38;;;25.35;61.10
31239;BME280;17871;31.584;74.450;2023-03-21T13:11:37;98174.03;;;25.32;61.47
31239;BME280;17871;31.584;74.450;2023-03-21T13:14:13;98174.25;;;25.27;61.90
31239;BME280;17871;31.584;74.450;2023-03-21T13:16:52;98186.44;;;25.28;61.65
31239;BME280;17871;31.584;74.450;2023-03-21T13:19:52;98189.38;;;25.22;61.71
31239;BME280;17871;31.584;74.450;2023-03-21T13:25:18;98194.69;;;25.21;62.08
31239;BME280;17871;31.584;74.450;2023-03-21T13:28:02;98192.75;;;25.09;62.41
31239;BME280;17871;31.584;74.450;2023-03-21T13:30:31;98192.91;;;25.06;62.27
31239;BME280;17871;31.584;74.450;2023-03-21T13:33:10;98201.00;;;25.01;62.27
31239;BME280;17871;31.584;74.450;2023-03-21T13:35:43;98208.91;;;25.00;62.14
31239;BME280;17871;31.584;74.450;2023-03-21T13:40:48;98209.00;;;24.98;61.69
31239;BME280;17871;31.584;74.450;2023-03-21T13:43:41;98216.19;;;24.95;61.77
31239;BME280;17871;31.584;74.450;2023-03-21T14:02:27;98240.19;;;24.68;63.29
31239;BME280;17871;31.584;74.450;2023-03-21T14:05:17;98245.06;;;24.59;63.43
31239;BME280;17871;31.584;74.450;2023-03-21T14:07:52;98247.75;;;24.57;63.61
31239;BME280;17871;31.584;74.450;2023-03-21T14:10:36;98248.06;;;24.51;63.95
31239;BME280;17871;31.584;74.450;2023-03-21T14:13:08;98246.09;;;24.39;64.43
31239;BME280;17871;31.584;74.450;2023-03-21T14:15:44;98253.66;;;24.44;64.32
31239;BME280;17871;31.584;74.450;2023-03-21T14:18:23;98251.59;;;24.50;64.08
31239;BME280;17871;31.584;74.450;2023-03-21T14:21:35;98266.81;;;24.42;64.06
31239;BME280;17871;31.584;74.450;2023-03-21T14:24:06;98257.91;;;24.46;64.01
31239;BME280;17871;31.584;74.450;2023-03-21T14:26:39;98264.97;;;24.44;63.79
31239;BME280;17871;31.584;74.450;2023-03-21T14:29:16;98263.91;;;24.48;63.70
31239;BME280;17871;31.584;74.450;2023-03-21T14:31:54;98269.44;;;24.42;63.76
31239;BME280;17871;31.584;74.450;2023-03-21T14:34:26;98267.75;;;24.41;64.02
31239;BME280;17871;31.584;74.450;2023-03-21T14:36:56;98269.88;;;24.50;63.76
31239;BME280;17871;31.584;74.450;2023-03-21T14:39:28;98278.13;;;24.43;64.19
31239;BME280;17871;31.584;74.450;2023-03-21T14:42:06;98280.59;;;24.46;64.36
31239;BME280;17871;31.584;74.450;2023-03-21T14:44:41;98285.13;;;24.42;64.09
31239;BME280;17871;31.584;74.450;2023-03-21T14:47:26;98280.91;;;24.40;64.22
31239;BME280;17871;31.584;74.450;2023-03-21T14:49:56;98281.44;;;24.29;64.47
31239;BME280;17871;31.584;74.450;2023-03-21T14:52:31;98290.88;;;24.32;64.79
31239;BME280;17871;31.584;74.450;2023-03-21T14:55:04;98296.31;;;24.27;64.59
31239;BME280;17871;31.584;74.450;2023-03-21T14:57:38;98309.63;;;24.22;64.51
31239;BME280;17871;31.584;74.450;2023-03-21T15:00:18;98312.13;;;24.24;64.52
31239;BME280;17871;31.584;74.450;2023-03-21T15:02:50;98319.22;;;24.22;64.51
31239;BME280;17871;31.584;74.450;2023-03-21T15:05:33;98329.66;;;24.22;64.66
31239;BME280;17871;31.584;74.450;2023-03-21T15:08:14;98323.66;;;24.20;64.82
31239;BME280;17871;31.584;74.450;2023-03-21T15:11:13;98319.50;;;24.16;64.99
31239;BME280;17871;31.584;74.450;2023-03-21T15:13:49;98313.63;;;24.11;65.40
31239;BME280;17871;31.584;74.450;2023-03-21T15:16:22;98315.63;;;24.06;65.52
31239;BME280;17871;31.584;74.450;2023-03-21T15:18:51;98314.72;;;24.07;65.69